createdAt,value
2023-05-13T00:00:52.197Z,6.13
2023-05-13T00:03:19.891Z,13.10
2023-05-13T00:05:47.889Z,7.22
2023-05-13T00:08:15.678Z,7.35
2023-05-13T00:10:43.099Z,7.40
2023-05-13T00:13:10.509Z,9.85
2023-05-13T00:18:05.277Z,8.73
2023-05-13T00:20:32.687Z,10.98
2023-05-13T00:23:00.192Z,8.88
2023-05-13T00:25:27.608Z,9.48
2023-05-13T00:27:55.117Z,10.55
2023-05-13T00:30:22.787Z,8.35
2023-05-13T00:32:50.939Z,7.55
2023-05-13T00:35:18.764Z,9.15
2023-05-13T00:37:46.366Z,9.43
2023-05-13T00:40:24.371Z,8.60
2023-05-13T00:42:52.477Z,10.85
2023-05-13T00:45:20.733Z,7.28
2023-05-13T00:47:49.806Z,10.20
2023-05-13T00:50:17.360Z,9.25
2023-05-13T00:52:45.078Z,11.75
2023-05-13T00:55:12.703Z,10.68
2023-05-13T00:57:40.649Z,11.32
2023-05-13T01:00:09.398Z,8.88
2023-05-13T01:03:01.149Z,11.77
2023-05-13T01:05:59.269Z,16.08
2023-05-13T01:08:52.299Z,10.85
2023-05-13T01:11:27.382Z,14.00
2023-05-13T01:14:11.773Z,13.85
2023-05-13T01:16:51.917Z,12.63
2023-05-13T01:19:38.462Z,15.88
2023-05-13T01:22:06.995Z,15.57
2023-05-13T01:24:34.530Z,15.38
2023-05-13T01:27:02.744Z,17.02
2023-05-13T01:29:31.032Z,15.20
2023-05-13T01:32:00.607Z,20.88
2023-05-13T01:34:29.868Z,22.95
2023-05-13T01:36:59.827Z,15.88
2023-05-13T01:39:28.755Z,21.63
2023-05-13T01:41:59.553Z,19.00
2023-05-13T01:44:27.570Z,22.30
2023-05-13T01:46:55.469Z,21.38
2023-05-13T01:49:23.273Z,23.65
2023-05-13T01:54:18.007Z,22.67
2023-05-13T01:56:51.238Z,24.65
2023-05-13T01:59:19.342Z,20.27
2023-05-13T02:01:46.770Z,25.42
2023-05-13T02:04:14.393Z,25.92
2023-05-13T02:06:42.612Z,26.77
2023-05-13T02:09:10.485Z,27.17
2023-05-13T02:11:40.657Z,27.35
2023-05-13T02:14:08.118Z,29.63
2023-05-13T02:16:35.730Z,29.45
2023-05-13T02:19:07.093Z,26.60
2023-05-13T02:21:35.039Z,29.85
2023-05-13T02:24:02.520Z,29.67
2023-05-13T02:26:30.000Z,31.42
2023-05-13T02:28:57.837Z,32.17
2023-05-13T02:31:25.766Z,37.25
2023-05-13T02:33:53.558Z,29.92
2023-05-13T02:36:21.512Z,28.08
2023-05-13T02:38:49.107Z,27.52
2023-05-13T02:41:17.568Z,28.40
2023-05-13T02:43:44.970Z,31.15
2023-05-13T02:46:12.873Z,28.75
2023-05-13T02:48:40.562Z,28.35
2023-05-13T02:51:09.622Z,30.55
2023-05-13T02:53:37.632Z,31.80
2023-05-13T02:56:07.856Z,37.88
2023-05-13T02:58:36.844Z,34.00
2023-05-13T03:01:04.462Z,32.65
2023-05-13T03:03:32.145Z,32.95
2023-05-13T03:05:59.912Z,35.63
2023-05-13T03:08:27.478Z,33.58
2023-05-13T03:10:55.599Z,32.03
2023-05-13T03:13:23.014Z,28.98
2023-05-13T03:15:50.808Z,30.30
2023-05-13T03:18:18.340Z,29.60
2023-05-13T03:20:46.522Z,29.60
2023-05-13T03:23:13.948Z,28.77
2023-05-13T03:25:42.874Z,31.38
2023-05-13T03:28:10.590Z,36.03
2023-05-13T03:30:44.169Z,28.88
2023-05-13T03:33:16.433Z,29.77
2023-05-13T03:35:44.362Z,30.90
2023-05-13T03:38:11.835Z,27.88
2023-05-13T03:40:44.164Z,32.63
2023-05-13T03:43:11.619Z,33.72
2023-05-13T03:45:41.885Z,29.17
2023-05-13T03:48:15.571Z,31.65
2023-05-13T03:50:43.417Z,32.05
2023-05-13T03:53:12.090Z,33.33
2023-05-13T03:55:40.565Z,32.90
2023-05-13T04:00:39.729Z,32.75
2023-05-13T04:03:07.561Z,35.00
2023-05-13T04:05:35.360Z,33.45
2023-05-13T04:08:02.895Z,38.88
2023-05-13T04:10:30.374Z,30.95
2023-05-13T04:12:58.342Z,31.95
2023-05-13T04:15:25.990Z,34.28
2023-05-13T04:17:54.092Z,35.28
2023-05-13T04:20:21.858Z,36.38
2023-05-13T04:22:49.691Z,33.80
2023-05-13T04:25:17.254Z,31.95
2023-05-13T04:27:44.772Z,30.17
2023-05-13T04:30:17.566Z,33.90
2023-05-13T04:32:45.524Z,31.58
2023-05-13T04:35:13.773Z,32.67
2023-05-13T04:37:44.782Z,36.35
2023-05-13T04:40:15.884Z,33.28
2023-05-13T04:42:43.556Z,28.38
2023-05-13T04:45:11.589Z,38.22
2023-05-13T04:47:39.177Z,30.02
2023-05-13T04:50:07.679Z,34.13
2023-05-13T04:52:37.465Z,36.72
2023-05-13T04:55:05.780Z,36.35
2023-05-13T04:57:33.656Z,33.72
2023-05-13T05:00:01.607Z,39.63
2023-05-13T05:02:31.717Z,37.22
2023-05-13T05:04:59.464Z,32.35
2023-05-13T05:07:27.152Z,34.90
2023-05-13T05:09:55.600Z,35.55
2023-05-13T05:12:23.617Z,36.88
2023-05-13T05:14:51.207Z,38.17
2023-05-13T05:17:18.827Z,33.38
2023-05-13T05:19:46.563Z,35.63
2023-05-13T05:22:15.233Z,32.03
2023-05-13T05:24:42.815Z,32.95
2023-05-13T05:27:10.447Z,36.10
2023-05-13T05:29:37.914Z,37.28
2023-05-13T05:32:05.993Z,31.00
2023-05-13T05:34:33.793Z,33.28
2023-05-13T05:37:01.452Z,40.47
2023-05-13T05:39:29.143Z,37.42
2023-05-13T05:41:56.770Z,36.70
2023-05-13T05:44:24.204Z,37.30
2023-05-13T05:46:52.938Z,37.65
2023-05-13T05:49:20.410Z,36.95
2023-05-13T05:51:49.176Z,40.25
2023-05-13T05:54:16.728Z,33.83
2023-05-13T05:56:44.204Z,36.13
2023-05-13T06:01:39.081Z,40.63
2023-05-13T06:04:06.979Z,36.20
2023-05-13T06:06:35.185Z,36.83
2023-05-13T06:09:02.792Z,37.10
2023-05-13T06:11:30.478Z,36.90
2023-05-13T06:13:57.870Z,38.35
2023-05-13T06:16:25.743Z,35.70
2023-05-13T06:18:53.321Z,35.53
2023-05-13T06:21:21.360Z,37.53
2023-05-13T06:23:50.073Z,40.90
2023-05-13T06:26:17.578Z,35.55
2023-05-13T06:28:44.971Z,38.20
2023-05-13T06:31:12.458Z,41.90
2023-05-13T06:33:39.995Z,42.13
2023-05-13T06:36:07.985Z,39.35
2023-05-13T06:38:35.818Z,36.38
2023-05-13T06:41:03.905Z,39.72
2023-05-13T06:43:35.038Z,35.53
2023-05-13T06:46:13.304Z,36.97
2023-05-13T06:48:41.039Z,37.25
2023-05-13T06:51:08.536Z,38.42
2023-05-13T06:53:36.136Z,40.33
2023-05-13T06:56:03.695Z,36.25
2023-05-13T06:58:31.271Z,34.95
2023-05-13T07:00:58.865Z,38.50
2023-05-13T07:03:26.605Z,39.03
2023-05-13T07:05:54.101Z,37.10
2023-05-13T07:08:22.147Z,41.95
2023-05-13T07:10:49.657Z,41.03
2023-05-13T07:13:19.742Z,40.58
2023-05-13T07:15:47.477Z,36.55
2023-05-13T07:18:15.188Z,35.90
2023-05-13T07:20:42.626Z,37.33
2023-05-13T07:23:10.120Z,36.58
2023-05-13T07:25:37.592Z,37.03
2023-05-13T07:28:05.125Z,32.25
2023-05-13T07:30:32.584Z,36.50
2023-05-13T07:33:00.199Z,37.15
2023-05-13T07:35:27.768Z,32.35
2023-05-13T07:37:55.281Z,33.53
2023-05-13T07:40:22.919Z,33.65
2023-05-13T07:42:50.656Z,32.90
2023-05-13T07:45:18.085Z,34.58
2023-05-13T07:47:45.566Z,38.78
2023-05-13T07:50:13.087Z,35.63
2023-05-13T07:52:40.564Z,35.78
2023-05-13T07:55:13.197Z,36.65
2023-05-13T07:57:47.023Z,29.98
2023-05-13T08:00:17.398Z,29.77
2023-05-13T08:02:45.453Z,32.33
2023-05-13T08:05:13.309Z,31.25
2023-05-13T08:07:41.679Z,36.33
2023-05-13T08:10:09.662Z,31.58
2023-05-13T08:12:37.326Z,30.70
2023-05-13T08:15:05.461Z,31.08
2023-05-13T08:17:33.776Z,30.98
2023-05-13T08:20:01.485Z,28.05
2023-05-13T08:22:28.945Z,29.75
2023-05-13T08:24:56.721Z,33.78
2023-05-13T08:27:24.162Z,26.63
2023-05-13T08:29:51.654Z,34.90
2023-05-13T08:32:19.263Z,30.23
2023-05-13T08:34:47.151Z,28.75
2023-05-13T08:37:14.609Z,32.78
2023-05-13T08:39:42.115Z,30.58
2023-05-13T08:42:11.570Z,31.40
2023-05-13T08:44:42.476Z,32.58
2023-05-13T08:47:22.167Z,36.05
2023-05-13T08:49:51.458Z,26.63
2023-05-13T08:52:20.933Z,30.17
2023-05-13T08:54:49.264Z,31.98
2023-05-13T08:57:16.972Z,34.60
2023-05-13T08:59:44.436Z,28.80
2023-05-13T09:02:12.329Z,32.55
2023-05-13T09:04:42.413Z,29.30
2023-05-13T09:07:10.778Z,29.50
2023-05-13T09:09:38.382Z,30.88
2023-05-13T09:12:06.196Z,28.73
2023-05-13T09:14:33.748Z,33.17
2023-05-13T09:17:02.375Z,27.20
2023-05-13T09:19:30.211Z,34.60
2023-05-13T09:21:57.719Z,27.85
2023-05-13T09:24:25.292Z,30.17
2023-05-13T09:26:52.770Z,31.73
2023-05-13T09:29:29.634Z,31.15
2023-05-13T09:31:59.640Z,30.33
2023-05-13T09:34:34.594Z,29.88
2023-05-13T09:37:03.278Z,27.55
2023-05-13T09:39:33.969Z,27.27
2023-05-13T09:42:04.489Z,27.95
2023-05-13T09:44:34.068Z,25.40
2023-05-13T09:47:02.693Z,21.27
2023-05-13T09:49:31.773Z,24.98
2023-05-13T09:51:59.382Z,24.05
2023-05-13T09:54:28.752Z,21.35
2023-05-13T09:56:59.979Z,24.92
2023-05-13T09:59:27.626Z,22.75
2023-05-13T10:01:56.152Z,26.77
2023-05-13T10:04:24.120Z,25.42
2023-05-13T10:06:52.476Z,23.48
2023-05-13T10:09:22.476Z,21.40
2023-05-13T10:11:50.098Z,23.52
2023-05-13T10:14:18.344Z,21.42
2023-05-13T10:16:48.011Z,22.83
2023-05-13T10:19:15.968Z,25.60
2023-05-13T10:21:44.434Z,20.08
2023-05-13T10:24:13.473Z,24.33
2023-05-13T10:26:41.872Z,24.20
2023-05-13T10:29:10.854Z,20.38
2023-05-13T10:31:38.820Z,19.90
2023-05-13T10:34:06.803Z,23.55
2023-05-13T10:36:40.493Z,22.73
2023-05-13T10:39:42.135Z,24.88
2023-05-13T10:42:21.715Z,23.52
2023-05-13T10:44:54.517Z,20.40
2023-05-13T10:47:22.233Z,22.80
2023-05-13T10:49:55.485Z,22.75
2023-05-13T10:52:23.172Z,20.23
2023-05-13T10:55:04.553Z,17.38
2023-05-13T10:57:38.831Z,19.58
2023-05-13T11:00:18.032Z,20.20
2023-05-13T11:02:45.700Z,20.17
2023-05-13T11:05:21.275Z,20.40
2023-05-13T11:07:57.067Z,17.17
2023-05-13T11:10:32.088Z,20.50
2023-05-13T11:13:15.279Z,22.40
2023-05-13T11:15:48.942Z,19.52
2023-05-13T11:18:16.514Z,25.48
2023-05-13T11:21:05.545Z,21.80
2023-05-13T11:23:49.885Z,20.65
2023-05-13T11:26:17.554Z,21.25
2023-05-13T11:28:54.992Z,21.50
2023-05-13T11:31:23.555Z,19.77
2023-05-13T11:34:17.142Z,16.77
2023-05-13T11:36:47.798Z,19.98
2023-05-13T11:39:20.545Z,18.55
2023-05-13T11:41:52.132Z,19.17
2023-05-13T11:44:21.912Z,17.73
2023-05-13T11:46:57.609Z,20.17
2023-05-13T11:49:42.469Z,18.08
2023-05-13T11:52:12.602Z,20.00
2023-05-13T11:54:48.571Z,22.20
2023-05-13T11:57:25.245Z,25.73
2023-05-13T11:59:57.631Z,19.73
2023-05-13T12:02:30.183Z,19.20
2023-05-13T12:05:04.450Z,21.75
2023-05-13T12:07:33.137Z,19.67
2023-05-13T12:10:02.427Z,23.50
2023-05-13T12:12:32.005Z,22.75
2023-05-13T12:15:02.168Z,20.20
2023-05-13T12:17:31.432Z,19.63
2023-05-13T12:20:11.863Z,18.50
2023-05-13T12:22:45.738Z,24.30
2023-05-13T12:25:39.175Z,24.83
2023-05-13T12:28:18.147Z,16.42
2023-05-13T12:31:02.739Z,19.05
2023-05-13T12:33:31.937Z,19.40
2023-05-13T12:36:20.460Z,24.17
2023-05-13T12:39:02.659Z,20.65
2023-05-13T12:41:40.998Z,23.98
2023-05-13T12:44:10.765Z,21.50
2023-05-13T12:46:39.786Z,24.30
2023-05-13T12:49:09.789Z,18.70
2023-05-13T12:51:37.310Z,21.63
2023-05-13T12:54:04.925Z,19.40
2023-05-13T12:56:32.437Z,23.80
2023-05-13T12:59:00.155Z,22.80
2023-05-13T13:01:27.763Z,19.98
2023-05-13T13:03:55.361Z,21.83
2023-05-13T13:06:22.873Z,22.08
2023-05-13T13:08:50.788Z,21.08
2023-05-13T13:11:21.698Z,20.13
2023-05-13T13:13:50.667Z,20.10
2023-05-13T13:16:18.392Z,19.75
2023-05-13T13:18:46.057Z,20.25
2023-05-13T13:21:13.656Z,18.23
2023-05-13T13:23:41.217Z,21.13
2023-05-13T13:26:08.693Z,19.05
2023-05-13T13:28:36.142Z,22.60
2023-05-13T13:31:03.632Z,21.33
2023-05-13T13:33:31.212Z,16.73
2023-05-13T13:35:59.047Z,19.10
2023-05-13T13:38:26.602Z,19.52
2023-05-13T13:40:54.016Z,20.38
2023-05-13T13:43:21.447Z,19.88
2023-05-13T13:45:48.906Z,21.08
2023-05-13T13:48:16.475Z,17.65
2023-05-13T13:50:46.005Z,18.65
2023-05-13T13:53:14.963Z,19.75
2023-05-13T13:55:42.399Z,18.67
2023-05-13T13:58:09.922Z,18.63
2023-05-13T14:00:37.344Z,18.73
2023-05-13T14:03:05.102Z,18.58
2023-05-13T14:05:32.776Z,16.90
2023-05-13T14:08:00.889Z,19.38
2023-05-13T14:10:28.387Z,20.60
2023-05-13T14:12:56.163Z,23.20
2023-05-13T14:15:28.681Z,20.23
2023-05-13T14:17:57.236Z,22.75
2023-05-13T14:20:25.736Z,21.83
2023-05-13T14:22:53.363Z,19.02
2023-05-13T14:25:20.820Z,19.35
2023-05-13T14:27:48.299Z,19.60
2023-05-13T14:30:18.057Z,20.60
2023-05-13T14:32:45.819Z,20.55
2023-05-13T14:35:14.646Z,21.33
2023-05-13T14:37:42.966Z,21.42
2023-05-13T14:40:10.619Z,19.92
2023-05-13T14:42:38.125Z,20.67
2023-05-13T14:45:06.056Z,22.73
2023-05-13T14:47:33.597Z,18.33
2023-05-13T14:50:01.207Z,18.83
2023-05-13T14:52:28.812Z,20.25
2023-05-13T14:54:56.212Z,23.05
2023-05-13T14:57:23.722Z,20.13
2023-05-13T14:59:51.123Z,21.60
2023-05-13T15:02:18.712Z,24.27
2023-05-13T15:07:42.076Z,19.95
2023-05-13T15:10:10.233Z,21.45
2023-05-13T15:12:37.660Z,20.83
2023-05-13T15:15:05.868Z,21.27
2023-05-13T15:17:33.447Z,19.15
2023-05-13T15:20:00.914Z,21.23
2023-05-13T15:22:28.387Z,21.17
2023-05-13T15:24:55.815Z,22.35
2023-05-13T15:27:23.219Z,26.67
2023-05-13T15:29:50.729Z,22.35
2023-05-13T15:32:18.175Z,21.85
2023-05-13T15:34:45.712Z,20.05
2023-05-13T15:37:13.071Z,23.65
2023-05-13T15:39:40.691Z,22.88
2023-05-13T15:42:08.300Z,19.77
2023-05-13T15:44:36.187Z,27.33
2023-05-13T15:47:06.219Z,21.90
2023-05-13T15:49:33.924Z,20.75
2023-05-13T15:52:01.712Z,22.58
2023-05-13T15:54:29.213Z,22.85
2023-05-13T15:56:58.969Z,20.67
2023-05-13T15:59:26.479Z,18.65
2023-05-13T16:01:53.953Z,22.52
2023-05-13T16:04:21.597Z,23.67
2023-05-13T16:06:49.045Z,25.20
2023-05-13T16:09:16.696Z,23.90
2023-05-13T16:11:44.248Z,23.92
2023-05-13T16:14:11.971Z,21.85
2023-05-13T16:16:39.515Z,20.83
2023-05-13T16:19:08.715Z,26.33
2023-05-13T16:21:40.382Z,25.63
2023-05-13T16:24:07.958Z,26.20
2023-05-13T16:26:35.320Z,23.27
2023-05-13T16:29:14.588Z,24.35
2023-05-13T16:31:44.414Z,21.67
2023-05-13T16:34:12.008Z,22.02
2023-05-13T16:36:39.537Z,22.70
2023-05-13T16:39:06.913Z,21.50
2023-05-13T16:41:36.654Z,22.60
2023-05-13T16:44:04.385Z,19.00
2023-05-13T16:46:35.532Z,19.02
2023-05-13T16:49:03.197Z,24.33
2023-05-13T16:51:30.712Z,23.38
2023-05-13T16:54:11.051Z,24.17
2023-05-13T16:56:39.110Z,23.38
2023-05-13T16:59:08.895Z,22.73
2023-05-13T17:01:37.091Z,17.77
2023-05-13T17:04:04.788Z,19.83
2023-05-13T17:06:32.307Z,20.45
2023-05-13T17:08:59.795Z,23.17
2023-05-13T17:11:27.451Z,19.85
2023-05-13T17:13:54.838Z,19.33
2023-05-13T17:16:22.337Z,23.60
2023-05-13T17:18:49.819Z,19.92
2023-05-13T17:21:17.405Z,22.63
2023-05-13T17:23:45.830Z,18.25
2023-05-13T17:26:13.590Z,21.83
2023-05-13T17:28:41.217Z,20.92
2023-05-13T17:31:08.790Z,21.73
2023-05-13T17:33:36.295Z,20.17
2023-05-13T17:36:04.398Z,23.75
2023-05-13T17:38:31.775Z,20.35
2023-05-13T17:40:59.349Z,19.20
2023-05-13T17:43:27.133Z,21.80
2023-05-13T17:45:54.666Z,21.98
2023-05-13T17:48:22.255Z,22.38
2023-05-13T17:50:49.863Z,25.38
2023-05-13T17:53:17.284Z,21.58
2023-05-13T17:55:44.792Z,22.25
2023-05-13T17:58:12.347Z,20.88
2023-05-13T18:00:39.955Z,23.45
2023-05-13T18:03:07.484Z,18.25
2023-05-13T18:05:35.740Z,22.58
2023-05-13T18:08:03.401Z,20.77
2023-05-13T18:10:31.151Z,24.48
2023-05-13T18:12:58.661Z,21.60
2023-05-13T18:15:26.112Z,20.35
2023-05-13T18:17:53.665Z,21.30
2023-05-13T18:20:21.564Z,20.75
2023-05-13T18:22:49.190Z,18.55
2023-05-13T18:25:16.764Z,17.63
2023-05-13T18:27:44.173Z,18.90
2023-05-13T18:30:12.257Z,20.95
2023-05-13T18:32:39.733Z,19.15
2023-05-13T18:35:07.710Z,20.55
2023-05-13T18:37:35.784Z,18.10
2023-05-13T18:40:03.827Z,19.23
2023-05-13T18:42:31.402Z,18.08
2023-05-13T18:44:58.913Z,21.38
2023-05-13T18:47:26.681Z,17.60
2023-05-13T18:49:54.183Z,19.25
2023-05-13T18:52:21.545Z,19.55
2023-05-13T18:54:49.010Z,16.83
2023-05-13T18:57:16.937Z,22.83
2023-05-13T18:59:44.537Z,24.10
2023-05-13T19:02:12.187Z,17.13
2023-05-13T19:04:39.752Z,17.40
2023-05-13T19:07:07.317Z,19.33
2023-05-13T19:09:36.123Z,17.60
2023-05-13T19:12:03.796Z,19.48
2023-05-13T19:14:31.390Z,20.15
2023-05-13T19:16:58.864Z,16.13
2023-05-13T19:19:26.322Z,18.88
2023-05-13T19:21:53.721Z,19.70
2023-05-13T19:24:21.171Z,22.77
2023-05-13T19:26:48.556Z,23.95
2023-05-13T19:29:16.309Z,22.15
2023-05-13T19:31:43.791Z,16.55
2023-05-13T19:34:11.993Z,21.00
2023-05-13T19:36:39.519Z,20.45
2023-05-13T19:39:07.162Z,18.73
2023-05-13T19:41:34.653Z,21.40
2023-05-13T19:44:02.248Z,24.83
2023-05-13T19:46:29.807Z,20.38
2023-05-13T19:48:57.345Z,22.17
2023-05-13T19:51:24.806Z,21.17
2023-05-13T19:53:52.285Z,17.98
2023-05-13T19:56:19.675Z,20.20
2023-05-13T19:58:47.503Z,18.63
2023-05-13T20:01:15.151Z,18.45
2023-05-13T20:03:42.784Z,23.65
2023-05-13T20:06:10.419Z,20.05
2023-05-13T20:08:38.879Z,21.35
2023-05-13T20:11:06.241Z,21.67
2023-05-13T20:13:33.810Z,21.75
2023-05-13T20:16:01.285Z,19.30
2023-05-13T20:18:29.658Z,19.50
2023-05-13T20:20:57.196Z,25.00
2023-05-13T20:23:24.817Z,23.35
2023-05-13T20:25:54.331Z,25.23
2023-05-13T20:28:21.799Z,21.60
2023-05-13T20:30:53.281Z,23.50
2023-05-13T20:33:20.790Z,21.88
2023-05-13T20:35:48.188Z,27.88
2023-05-13T20:38:18.889Z,23.45
2023-05-13T20:40:48.125Z,22.83
2023-05-13T20:43:17.002Z,24.17
2023-05-13T20:45:44.677Z,20.70
2023-05-13T20:48:13.626Z,20.45
2023-05-13T20:50:41.190Z,20.65
2023-05-13T20:53:08.792Z,25.58
2023-05-13T20:55:36.345Z,21.35
2023-05-13T20:58:03.930Z,20.75
2023-05-13T21:00:31.501Z,20.15
2023-05-13T21:02:59.980Z,20.63
2023-05-13T21:05:27.575Z,23.58
2023-05-13T21:07:55.191Z,20.33
2023-05-13T21:10:23.017Z,21.00
2023-05-13T21:12:51.374Z,21.02
2023-05-13T21:15:20.310Z,26.05
2023-05-13T21:17:49.280Z,20.45
2023-05-13T21:20:17.073Z,21.05
2023-05-13T21:22:44.532Z,25.67
2023-05-13T21:25:12.911Z,24.33
2023-05-13T21:27:40.395Z,22.73
2023-05-13T21:30:08.406Z,22.33
2023-05-13T21:32:35.789Z,22.20
2023-05-13T21:35:03.320Z,17.15
2023-05-13T21:37:30.759Z,21.35
2023-05-13T21:39:58.204Z,21.83
2023-05-13T21:42:27.097Z,18.88
2023-05-13T21:44:54.794Z,19.80
2023-05-13T21:47:22.605Z,22.42
2023-05-13T21:49:50.328Z,22.02
2023-05-13T21:52:18.102Z,20.15
2023-05-13T21:54:45.657Z,22.50
2023-05-13T21:57:13.035Z,21.70
2023-05-13T21:59:40.686Z,19.00
2023-05-13T22:02:08.172Z,20.63
2023-05-13T22:04:35.833Z,20.67
2023-05-13T22:07:03.538Z,19.95
2023-05-13T22:09:31.801Z,17.80
2023-05-13T22:11:59.164Z,17.73
2023-05-13T22:14:26.557Z,19.33
2023-05-13T22:19:37.145Z,23.17
2023-05-13T22:22:04.755Z,19.80
2023-05-13T22:24:32.354Z,19.23
2023-05-13T22:27:00.378Z,18.67
2023-05-13T22:29:28.355Z,19.25
2023-05-13T22:31:57.572Z,21.45
2023-05-13T22:34:26.458Z,22.02
2023-05-13T22:36:53.886Z,24.13
2023-05-13T22:39:21.352Z,20.25
2023-05-13T22:41:48.787Z,18.88
2023-05-13T22:44:16.385Z,25.27
2023-05-13T22:46:43.852Z,20.10
2023-05-13T22:49:12.320Z,18.77
2023-05-13T22:51:39.852Z,21.10
2023-05-13T22:54:07.431Z,20.95
2023-05-13T22:56:34.820Z,20.15
2023-05-13T22:59:02.357Z,19.35
2023-05-13T23:01:29.797Z,18.20
2023-05-13T23:03:57.507Z,19.35
2023-05-13T23:06:26.718Z,20.42
2023-05-13T23:08:54.282Z,19.92
2023-05-13T23:11:21.778Z,24.35
2023-05-13T23:13:49.237Z,21.70
2023-05-13T23:16:16.822Z,20.60
2023-05-13T23:18:44.434Z,20.17
2023-05-13T23:21:11.932Z,21.23
2023-05-13T23:23:39.479Z,22.77
2023-05-13T23:26:06.952Z,22.08
2023-05-13T23:28:34.686Z,26.50
2023-05-13T23:31:02.141Z,19.55
2023-05-13T23:33:29.755Z,23.45
2023-05-13T23:35:57.253Z,21.50
2023-05-13T23:38:24.753Z,24.50
2023-05-13T23:40:52.344Z,22.70
2023-05-13T23:43:19.962Z,21.05
2023-05-13T23:45:47.413Z,19.58
2023-05-13T23:48:14.901Z,22.85
2023-05-13T23:50:42.436Z,22.25
2023-05-13T23:53:10.026Z,25.70
2023-05-13T23:55:37.456Z,21.67
2023-05-13T23:58:04.958Z,21.08
